MSC Annamaria — H3HN — position and weather

sailwx.info

Track history (hours):
 
Tides and Currents Weather Stations Pressure Air Temp Water Temp Dewpoint Dewpoint Depression Visibility Wind Speed Wind Dir Waves Ship Positions

MSC Annamaria

Last reported at 2018-Jun-17 21:59 UTC. Time now 2018-Jun-17 22:10 UTC.
Position N 46°29' E 030°46'.

Length 188 m; draft 9.2 m.

Type: Cargo ship. MMSI: 353852000.

Date/timePositionNaut miles runAvg speedWind from/ knotsBaromVisibWave heightAir tempDewpointWater temp
2018-Jun-17 21:59N 46°29' E 030°46'0 0.0
2018-Jun-17 21:28N 46°29' E 030°46'0 0.0
2018-Jun-17 20:54N 46°29' E 030°46'0 0.0
2018-Jun-17 20:30N 46°29' E 030°46'0 0.0
2018-Jun-17 19:59N 46°29' E 030°46'0 0.0
2018-Jun-17 19:28N 46°29' E 030°46'0 0.0
2018-Jun-17 18:58N 46°29' E 030°46'0 0.0
2018-Jun-17 18:25N 46°29' E 030°46'0 0.0
2018-Jun-17 17:59N 46°29' E 030°46'0 0.0
2018-Jun-17 17:28N 46°29' E 030°46'0 0.0
2018-Jun-17 16:57N 46°29' E 030°46'0 0.0
2018-Jun-17 16:28N 46°29' E 030°46'0 0.0
2018-Jun-17 15:58N 46°29' E 030°46'0 0.0
2018-Jun-17 15:28N 46°29' E 030°46'0 0.0
2018-Jun-17 14:58N 46°29' E 030°46'0 0.0
2018-Jun-17 14:27N 46°29' E 030°46'0 0.0
2018-Jun-17 14:00N 46°29' E 030°46'0 0.0
2018-Jun-17 13:28N 46°29' E 030°46'0 0.0
2018-Jun-17 12:59N 46°29' E 030°46'0 0.0
2018-Jun-17 12:27N 46°29' E 030°46'0 0.0
2018-Jun-17 11:58N 46°29' E 030°46'0 0.0
2018-Jun-17 11:30N 46°29' E 030°46'0 0.0
2018-Jun-17 10:55N 46°29' E 030°46'0 0.0
2018-Jun-17 10:29N 46°29' E 030°46'0 0.0
2018-Jun-17 09:55N 46°29' E 030°46'0 0.0
2018-Jun-17 09:23N 46°29' E 030°46'0 0.0
2018-Jun-17 08:55N 46°29' E 030°46'0 0.0
2018-Jun-17 08:28N 46°29' E 030°46'0 0.0
2018-Jun-17 07:58N 46°29' E 030°46'0 0.6
2018-Jun-17 07:30N 46°30' E 030°46'2 4.9
2018-Jun-17 07:01N 46°29' E 030°49'5 9.0
2018-Jun-17 06:30N 46°25' E 030°52'712.8
2018-Jun-17 05:58N 46°18' E 030°55'15312.1
2018-Jun-16 17:14N 43°57' E 029°29'313.5
2018-Jun-16 17:00N 43°55' E 029°27'713.5
2018-Jun-16 16:31N 43°49' E 029°21'713.5
2018-Jun-16 16:01N 43°44' E 029°15'713.5
2018-Jun-16 15:30N 43°39' E 029°09'713.4
2018-Jun-16 15:00N 43°33' E 029°04'713.4
2018-Jun-16 14:31N 43°28' E 028°58'713.4
2018-Jun-16 14:01N 43°23' E 028°52'713.4
2018-Jun-16 13:29N 43°17' E 028°47'1013.0
2018-Jun-16 12:42N 43°09' E 028°38'912.9
2018-Jun-16 11:58N 43°02' E 028°30'613.1
2018-Jun-16 11:31N 42°57' E 028°24'35 2.7
2018-Jun-15 22:51N 42°30' E 027°56'512.7
2018-Jun-15 22:25N 42°30' E 028°03'612.3
2018-Jun-15 21:54N 42°28' E 028°11'513.1
2018-Jun-15 21:30N 42°25' E 028°17'713.0
2018-Jun-15 20:59N 42°20' E 028°23'613.3
2018-Jun-15 20:30N 42°15' E 028°28'713.4
2018-Jun-15 20:00N 42°09' E 028°32'713.3
2018-Jun-15 19:30N 42°03' E 028°37'713.3
2018-Jun-15 19:00N 41°58' E 028°42'713.0
2018-Jun-15 18:28N 41°52' E 028°47'712.9
2018-Jun-15 17:54N 41°46' E 028°53'512.0
2018-Jun-15 17:30N 41°42' E 028°56'612.0
2018-Jun-15 17:00N 41°37' E 029°00'612.5
2018-Jun-15 16:30N 41°31' E 029°05'612.6
2018-Jun-15 16:00N 41°26' E 029°09'712.2
2018-Jun-15 15:26N 41°20' E 029°13'512.3
2018-Jun-15 14:59N 41°15' E 029°09'5 9.4
2018-Jun-15 14:26N 41°11' E 029°05'4 9.1
2018-Jun-15 14:00N 41°07' E 029°05'41 1.4
2018-Jun-14 08:06N 40°45' E 028°19'3112.5
2018-Jun-14 05:36N 40°43' E 027°38'312.8
2018-Jun-14 05:24N 40°42' E 027°35'512.7
2018-Jun-14 05:00N 40°40' E 027°29'8311.0
2018-Jun-13 21:25N 39°56' E 025°57'511.9
2018-Jun-13 20:57N 39°51' E 025°53'613.1
2018-Jun-13 20:30N 39°46' E 025°48'713.5
2018-Jun-13 20:00N 39°41' E 025°43'14912.8
2018-Jun-13 08:23N 37°33' E 024°06'613.2
2018-Jun-13 07:57N 37°28' E 024°01'613.1
2018-Jun-13 07:29N 37°24' E 023°56'1413.2
2018-Jun-13 06:28N 37°15' E 023°44'1913.0
2018-Jun-13 05:01N 37°01' E 023°27'36011.9
2018-Jun-11 22:47N 37°49' E 015°59'1712.5
2018-Jun-11 21:24N 37°55' E 015°38'512.4
2018-Jun-11 20:59N 37°60' E 015°35'713.4
2018-Jun-11 20:27N 38°07' E 015°35'614.1
2018-Jun-11 20:00N 38°13' E 015°36'713.9
2018-Jun-11 19:30N 38°19' E 015°41'713.1
2018-Jun-11 19:00N 38°23' E 015°47'611.5
2018-Jun-11 18:30N 38°27' E 015°53'2 3.7
2018-Jun-11 18:00N 38°28' E 015°55'0 0.0
2018-Jun-11 17:18N 38°28' E 015°55'0 0.0
2018-Jun-11 16:58N 38°28' E 015°55'0 0.0
2018-Jun-11 16:28N 38°28' E 015°55'0 0.0
2018-Jun-11 15:55N 38°28' E 015°55'0 0.0
2018-Jun-11 15:29N 38°28' E 015°55'0 0.0
2018-Jun-11 14:59N 38°28' E 015°55'0 0.0
2018-Jun-11 14:27N 38°28' E 015°55'0 0.0
2018-Jun-11 13:54N 38°28' E 015°55'0 0.0
2018-Jun-11 13:29N 38°28' E 015°55'0 0.0
2018-Jun-11 12:59N 38°28' E 015°55'0 0.0
2018-Jun-11 12:26N 38°28' E 015°55'0 0.0
2018-Jun-11 11:57N 38°28' E 015°55'0 0.0
2018-Jun-11 11:27N 38°28' E 015°55'0 0.0
2018-Jun-11 10:58N 38°28' E 015°55'0 0.0
2018-Jun-11 10:26N 38°28' E 015°55'0 0.0
2018-Jun-11 09:58N 38°28' E 015°55'0 0.0
2018-Jun-11 09:17N 38°28' E 015°55'0 0.0
2018-Jun-11 08:56N 38°28' E 015°55'0 0.0
2018-Jun-11 08:25N 38°28' E 015°55'0 0.0
2018-Jun-11 07:56N 38°28' E 015°55'0 0.0
2018-Jun-11 07:29N 38°28' E 015°55'1 1.2
2018-Jun-11 06:59N 38°27' E 015°54'0 0.0
2018-Jun-11 06:30N 38°27' E 015°54'0 0.0
2018-Jun-11 05:56N 38°27' E 015°54'0 0.0
2018-Jun-11 05:29N 38°27' E 015°54'0 0.0
2018-Jun-11 05:00N 38°27' E 015°54'0 0.0
2018-Jun-11 04:26N 38°27' E 015°54'0 0.0
2018-Jun-11 00:58N 38°27' E 015°54'0 0.0
2018-Jun-11 00:21N 38°27' E 015°54'0 0.0
2018-Jun-10 17:58N 38°27' E 015°54'0 0.0
2018-Jun-10 17:18N 38°27' E 015°54'0 0.0
2018-Jun-10 16:58N 38°27' E 015°54'0 0.0
2018-Jun-10 16:28N 38°27' E 015°54'0 0.0
2018-Jun-10 15:58N 38°27' E 015°54'0 0.0
2018-Jun-10 15:22N 38°27' E 015°54'0 0.0
2018-Jun-10 14:50N 38°27' E 015°54'0 0.0
2018-Jun-10 14:26N 38°27' E 015°54'0 0.0
2018-Jun-10 13:25N 38°27' E 015°54'0 0.0
2018-Jun-10 13:00N 38°27' E 015°54'0 0.0
2018-Jun-10 12:28N 38°27' E 015°54'1 1.0
2018-Jun-10 11:52N 38°28' E 015°55'0 0.0
2018-Jun-09 17:23N 38°28' E 015°55'0 0.5
2018-Jun-09 16:40N 38°28' E 015°55'0 0.0
2018-Jun-09 16:28N 38°28' E 015°55'0 0.0
2018-Jun-09 15:47N 38°28' E 015°55'0 0.0
2018-Jun-09 15:28N 38°28' E 015°55'0 0.0
2018-Jun-09 14:27N 38°28' E 015°55'0 0.0
2018-Jun-09 13:52N 38°28' E 015°55'0 0.0
2018-Jun-09 13:26N 38°28' E 015°55'0 0.0
2018-Jun-09 12:32N 38°28' E 015°55'0 0.1
2018-Jun-09 12:26N 38°28' E 015°55'0 0.0
2018-Jun-09 11:57N 38°28' E 015°55'0 0.0
2018-Jun-09 11:16N 38°28' E 015°55'0 0.0
2018-Jun-09 10:57N 38°28' E 015°55'0 0.0
2018-Jun-09 10:19N 38°28' E 015°55'0 0.0
2018-Jun-09 09:52N 38°28' E 015°55'0 0.0
2018-Jun-09 09:15N 38°28' E 015°55'0 0.0
2018-Jun-09 06:51N 38°28' E 015°55'0 0.0
2018-Jun-09 05:46N 38°28' E 015°55'8 0.8
2018-Jun-08 19:26N 38°22' E 015°47'1013.0
2018-Jun-08 18:42N 38°15' E 015°39'211.2
2018-Jun-08 18:30N 38°14' E 015°37'611.0
2018-Jun-08 17:59N 38°08' E 015°37'4 8.2
2018-Jun-08 17:29N 38°04' E 015°36'1311.3
2018-Jun-08 16:21N 37°53' E 015°45'713.7
2018-Jun-08 15:49N 37°50' E 015°53'  
Track history (hours):
 
Tides and Currents Weather Stations Pressure Air Temp Water Temp Dewpoint Dewpoint Depression Visibility Wind Speed Wind Dir Waves Ship Positions

MSC Annamaria

Last reported at 2018-Jun-17 21:59 UTC. Time now 2018-Jun-17 22:10 UTC.
Position N 46°29' E 030°46'.

Length 188 m; draft 9.2 m.

Type: Cargo ship. MMSI: 353852000.

Date/timePositionNaut miles runAvg speedWind from/ knotsBaromVisibWave heightAir tempDewpointWater temp
2018-Jun-17 21:59N 46°29' E 030°46'0 0.0
2018-Jun-17 21:28N 46°29' E 030°46'0 0.0
2018-Jun-17 20:54N 46°29' E 030°46'0 0.0
2018-Jun-17 20:30N 46°29' E 030°46'0 0.0
2018-Jun-17 19:59N 46°29' E 030°46'0 0.0
2018-Jun-17 19:28N 46°29' E 030°46'0 0.0
2018-Jun-17 18:58N 46°29' E 030°46'0 0.0
2018-Jun-17 18:25N 46°29' E 030°46'0 0.0
2018-Jun-17 17:59N 46°29' E 030°46'0 0.0
2018-Jun-17 17:28N 46°29' E 030°46'0 0.0
2018-Jun-17 16:57N 46°29' E 030°46'0 0.0
2018-Jun-17 16:28N 46°29' E 030°46'0 0.0
2018-Jun-17 15:58N 46°29' E 030°46'0 0.0
2018-Jun-17 15:28N 46°29' E 030°46'0 0.0
2018-Jun-17 14:58N 46°29' E 030°46'0 0.0
2018-Jun-17 14:27N 46°29' E 030°46'0 0.0
2018-Jun-17 14:00N 46°29' E 030°46'0 0.0
2018-Jun-17 13:28N 46°29' E 030°46'0 0.0
2018-Jun-17 12:59N 46°29' E 030°46'0 0.0
2018-Jun-17 12:27N 46°29' E 030°46'0 0.0
2018-Jun-17 11:58N 46°29' E 030°46'0 0.0
2018-Jun-17 11:30N 46°29' E 030°46'0 0.0
2018-Jun-17 10:55N 46°29' E 030°46'0 0.0
2018-Jun-17 10:29N 46°29' E 030°46'0 0.0
2018-Jun-17 09:55N 46°29' E 030°46'0 0.0
2018-Jun-17 09:23N 46°29' E 030°46'0 0.0
2018-Jun-17 08:55N 46°29' E 030°46'0 0.0
2018-Jun-17 08:28N 46°29' E 030°46'0 0.0
2018-Jun-17 07:58N 46°29' E 030°46'0 0.6
2018-Jun-17 07:30N 46°30' E 030°46'2 4.9
2018-Jun-17 07:01N 46°29' E 030°49'5 9.0
2018-Jun-17 06:30N 46°25' E 030°52'712.8
2018-Jun-17 05:58N 46°18' E 030°55'15312.1
2018-Jun-16 17:14N 43°57' E 029°29'313.5
2018-Jun-16 17:00N 43°55' E 029°27'713.5
2018-Jun-16 16:31N 43°49' E 029°21'713.5
2018-Jun-16 16:01N 43°44' E 029°15'713.5
2018-Jun-16 15:30N 43°39' E 029°09'713.4
2018-Jun-16 15:00N 43°33' E 029°04'713.4
2018-Jun-16 14:31N 43°28' E 028°58'713.4
2018-Jun-16 14:01N 43°23' E 028°52'713.4
2018-Jun-16 13:29N 43°17' E 028°47'1013.0
2018-Jun-16 12:42N 43°09' E 028°38'912.9
2018-Jun-16 11:58N 43°02' E 028°30'613.1
2018-Jun-16 11:31N 42°57' E 028°24'35 2.7
2018-Jun-15 22:51N 42°30' E 027°56'512.7
2018-Jun-15 22:25N 42°30' E 028°03'612.3
2018-Jun-15 21:54N 42°28' E 028°11'513.1
2018-Jun-15 21:30N 42°25' E 028°17'713.0
2018-Jun-15 20:59N 42°20' E 028°23'613.3
2018-Jun-15 20:30N 42°15' E 028°28'713.4
2018-Jun-15 20:00N 42°09' E 028°32'713.3
2018-Jun-15 19:30N 42°03' E 028°37'713.3
2018-Jun-15 19:00N 41°58' E 028°42'713.0
2018-Jun-15 18:28N 41°52' E 028°47'712.9
2018-Jun-15 17:54N 41°46' E 028°53'512.0
2018-Jun-15 17:30N 41°42' E 028°56'612.0
2018-Jun-15 17:00N 41°37' E 029°00'612.5
2018-Jun-15 16:30N 41°31' E 029°05'612.6
2018-Jun-15 16:00N 41°26' E 029°09'712.2
2018-Jun-15 15:26N 41°20' E 029°13'512.3
2018-Jun-15 14:59N 41°15' E 029°09'5 9.4
2018-Jun-15 14:26N 41°11' E 029°05'4 9.1
2018-Jun-15 14:00N 41°07' E 029°05'41 1.4
2018-Jun-14 08:06N 40°45' E 028°19'3112.5
2018-Jun-14 05:36N 40°43' E 027°38'312.8
2018-Jun-14 05:24N 40°42' E 027°35'512.7
2018-Jun-14 05:00N 40°40' E 027°29'8311.0
2018-Jun-13 21:25N 39°56' E 025°57'511.9
2018-Jun-13 20:57N 39°51' E 025°53'613.1
2018-Jun-13 20:30N 39°46' E 025°48'713.5
2018-Jun-13 20:00N 39°41' E 025°43'14912.8
2018-Jun-13 08:23N 37°33' E 024°06'613.2
2018-Jun-13 07:57N 37°28' E 024°01'613.1
2018-Jun-13 07:29N 37°24' E 023°56'1413.2
2018-Jun-13 06:28N 37°15' E 023°44'1913.0
2018-Jun-13 05:01N 37°01' E 023°27'36011.9
2018-Jun-11 22:47N 37°49' E 015°59'1712.5
2018-Jun-11 21:24N 37°55' E 015°38'512.4
2018-Jun-11 20:59N 37°60' E 015°35'713.4
2018-Jun-11 20:27N 38°07' E 015°35'614.1
2018-Jun-11 20:00N 38°13' E 015°36'713.9
2018-Jun-11 19:30N 38°19' E 015°41'713.1
2018-Jun-11 19:00N 38°23' E 015°47'611.5
2018-Jun-11 18:30N 38°27' E 015°53'2 3.7
2018-Jun-11 18:00N 38°28' E 015°55'0 0.0
2018-Jun-11 17:18N 38°28' E 015°55'0 0.0
2018-Jun-11 16:58N 38°28' E 015°55'0 0.0
2018-Jun-11 16:28N 38°28' E 015°55'0 0.0
2018-Jun-11 15:55N 38°28' E 015°55'0 0.0
2018-Jun-11 15:29N 38°28' E 015°55'0 0.0
2018-Jun-11 14:59N 38°28' E 015°55'0 0.0
2018-Jun-11 14:27N 38°28' E 015°55'0 0.0
2018-Jun-11 13:54N 38°28' E 015°55'0 0.0
2018-Jun-11 13:29N 38°28' E 015°55'0 0.0
2018-Jun-11 12:59N 38°28' E 015°55'0 0.0
2018-Jun-11 12:26N 38°28' E 015°55'0 0.0
2018-Jun-11 11:57N 38°28' E 015°55'0 0.0
2018-Jun-11 11:27N 38°28' E 015°55'0 0.0
2018-Jun-11 10:58N 38°28' E 015°55'0 0.0
2018-Jun-11 10:26N 38°28' E 015°55'0 0.0
2018-Jun-11 09:58N 38°28' E 015°55'0 0.0
2018-Jun-11 09:17N 38°28' E 015°55'0 0.0
2018-Jun-11 08:56N 38°28' E 015°55'0 0.0
2018-Jun-11 08:25N 38°28' E 015°55'0 0.0
2018-Jun-11 07:56N 38°28' E 015°55'0 0.0
2018-Jun-11 07:29N 38°28' E 015°55'1 1.2
2018-Jun-11 06:59N 38°27' E 015°54'0 0.0
2018-Jun-11 06:30N 38°27' E 015°54'0 0.0
2018-Jun-11 05:56N 38°27' E 015°54'0 0.0
2018-Jun-11 05:29N 38°27' E 015°54'0 0.0
2018-Jun-11 05:00N 38°27' E 015°54'0 0.0
2018-Jun-11 04:26N 38°27' E 015°54'0 0.0
2018-Jun-11 00:58N 38°27' E 015°54'0 0.0
2018-Jun-11 00:21N 38°27' E 015°54'0 0.0
2018-Jun-10 17:58N 38°27' E 015°54'0 0.0
2018-Jun-10 17:18N 38°27' E 015°54'0 0.0
2018-Jun-10 16:58N 38°27' E 015°54'0 0.0
2018-Jun-10 16:28N 38°27' E 015°54'0 0.0
2018-Jun-10 15:58N 38°27' E 015°54'0 0.0
2018-Jun-10 15:22N 38°27' E 015°54'0 0.0
2018-Jun-10 14:50N 38°27' E 015°54'0 0.0
2018-Jun-10 14:26N 38°27' E 015°54'0 0.0
2018-Jun-10 13:25N 38°27' E 015°54'0 0.0
2018-Jun-10 13:00N 38°27' E 015°54'0 0.0
2018-Jun-10 12:28N 38°27' E 015°54'1 1.0
2018-Jun-10 11:52N 38°28' E 015°55'0 0.0
2018-Jun-09 17:23N 38°28' E 015°55'0 0.5
2018-Jun-09 16:40N 38°28' E 015°55'0 0.0
2018-Jun-09 16:28N 38°28' E 015°55'0 0.0
2018-Jun-09 15:47N 38°28' E 015°55'0 0.0
2018-Jun-09 15:28N 38°28' E 015°55'0 0.0
2018-Jun-09 14:27N 38°28' E 015°55'0 0.0
2018-Jun-09 13:52N 38°28' E 015°55'0 0.0
2018-Jun-09 13:26N 38°28' E 015°55'0 0.0
2018-Jun-09 12:32N 38°28' E 015°55'0 0.1
2018-Jun-09 12:26N 38°28' E 015°55'0 0.0
2018-Jun-09 11:57N 38°28' E 015°55'0 0.0
2018-Jun-09 11:16N 38°28' E 015°55'0 0.0
2018-Jun-09 10:57N 38°28' E 015°55'0 0.0
2018-Jun-09 10:19N 38°28' E 015°55'0 0.0
2018-Jun-09 09:52N 38°28' E 015°55'0 0.0
2018-Jun-09 09:15N 38°28' E 015°55'0 0.0
2018-Jun-09 06:51N 38°28' E 015°55'0 0.0
2018-Jun-09 05:46N 38°28' E 015°55'8 0.8
2018-Jun-08 19:26N 38°22' E 015°47'1013.0
2018-Jun-08 18:42N 38°15' E 015°39'211.2
2018-Jun-08 18:30N 38°14' E 015°37'611.0
2018-Jun-08 17:59N 38°08' E 015°37'4 8.2
2018-Jun-08 17:29N 38°04' E 015°36'1311.3
2018-Jun-08 16:21N 37°53' E 015°45'713.7
2018-Jun-08 15:49N 37°50' E 015°53'  

Dump ship's entire track history